Seaguardian — 9HHP7 — position and weather

sailwx.info

Track history (hours):
 
Tides and Currents Weather Stations Pressure Air Temp Water Temp Dewpoint Dewpoint Depression Visibility Wind Speed Wind Dir Waves Ship Positions

Seaguardian

Last reported at 2017-Nov-01 01:31 UTC. Time now 2017-Nov-18 10:15 UTC.
Position N 22°02' E 114°04'.
Warning: this ship's position is 17 days out of date.

Length 225 m; draft 13.8 m.

Type: Cargo ship. MMSI: 215247000.

Date/timePositionNaut miles runAvg speedWind from/ knotsBaromVisibWave heightAir tempDewpointWater temp
2017-Nov-01 01:31N 22°02' E 114°04'0 9.7
2017-Nov-01 01:30N 22°02' E 114°04'510.0
2017-Nov-01 01:00N 21°58' E 114°02'511.0
2017-Nov-01 00:30N 21°54' E 113°58'612.0
2017-Nov-01 00:00N 21°51' E 113°52'612.0
2017-Oct-31 23:28N 21°47' E 113°47'511.4
2017-Oct-31 23:00N 21°42' E 113°44'5 9.5
2017-Oct-31 22:30N 21°38' E 113°41'611.0
2017-Oct-31 21:56N 21°35' E 113°35'510.9
2017-Oct-31 21:30N 21°32' E 113°31'510.8
2017-Oct-31 21:00N 21°30' E 113°26'  
Track history (hours):
 
Tides and Currents Weather Stations Pressure Air Temp Water Temp Dewpoint Dewpoint Depression Visibility Wind Speed Wind Dir Waves Ship Positions

Seaguardian

Last reported at 2017-Nov-01 01:31 UTC. Time now 2017-Nov-18 10:15 UTC.
Position N 22°02' E 114°04'.
Warning: this ship's position is 17 days out of date.

Length 225 m; draft 13.8 m.

Type: Cargo ship. MMSI: 215247000.

Date/timePositionNaut miles runAvg speedWind from/ knotsBaromVisibWave heightAir tempDewpointWater temp
2017-Nov-01 01:31N 22°02' E 114°04'0 9.7
2017-Nov-01 01:30N 22°02' E 114°04'510.0
2017-Nov-01 01:00N 21°58' E 114°02'511.0
2017-Nov-01 00:30N 21°54' E 113°58'612.0
2017-Nov-01 00:00N 21°51' E 113°52'612.0
2017-Oct-31 23:28N 21°47' E 113°47'511.4
2017-Oct-31 23:00N 21°42' E 113°44'5 9.5
2017-Oct-31 22:30N 21°38' E 113°41'611.0
2017-Oct-31 21:56N 21°35' E 113°35'510.9
2017-Oct-31 21:30N 21°32' E 113°31'510.8
2017-Oct-31 21:00N 21°30' E 113°26'  

Dump ship's entire track history